sensor_id;sensor_type;location;lat;lon;timestamp;P1;durP1;ratioP1;P2;durP2;ratioP2
10705;SDS011;5404;42.656;23.336;2024-03-25T00:02:12;1.10;;;1.00;;
10705;SDS011;5404;42.656;23.336;2024-03-25T00:04:38;3.35;;;1.10;;
10705;SDS011;5404;42.656;23.336;2024-03-25T00:07:03;1.58;;;0.93;;
10705;SDS011;5404;42.656;23.336;2024-03-25T00:09:29;3.95;;;0.88;;
10705;SDS011;5404;42.656;23.336;2024-03-25T00:11:54;1.10;;;1.00;;
10705;SDS011;5404;42.656;23.336;2024-03-25T00:14:20;0.80;;;0.80;;
10705;SDS011;5404;42.656;23.336;2024-03-25T00:16:46;0.80;;;0.80;;
10705;SDS011;5404;42.656;23.336;2024-03-25T00:19:11;1.95;;;0.90;;
10705;SDS011;5404;42.656;23.336;2024-03-25T00:21:37;2.03;;;1.10;;
10705;SDS011;5404;42.656;23.336;2024-03-25T00:24:02;1.52;;;1.10;;
10705;SDS011;5404;42.656;23.336;2024-03-25T00:26:28;1.48;;;1.13;;
10705;SDS011;5404;42.656;23.336;2024-03-25T00:28:54;0.77;;;0.77;;
10705;SDS011;5404;42.656;23.336;2024-03-25T00:31:19;0.80;;;0.80;;
10705;SDS011;5404;42.656;23.336;2024-03-25T00:33:44;0.85;;;0.85;;
10705;SDS011;5404;42.656;23.336;2024-03-25T00:36:10;1.02;;;0.90;;
10705;SDS011;5404;42.656;23.336;2024-03-25T00:38:35;3.55;;;1.00;;
10705;SDS011;5404;42.656;23.336;2024-03-25T00:41:01;0.80;;;0.80;;
10705;SDS011;5404;42.656;23.336;2024-03-25T00:43:28;1.00;;;0.85;;
10705;SDS011;5404;42.656;23.336;2024-03-25T00:45:53;1.00;;;0.82;;
10705;SDS011;5404;42.656;23.336;2024-03-25T00:48:18;1.38;;;0.90;;
10705;SDS011;5404;42.656;23.336;2024-03-25T00:50:44;1.27;;;1.17;;
10705;SDS011;5404;42.656;23.336;2024-03-25T00:53:09;0.90;;;0.90;;
10705;SDS011;5404;42.656;23.336;2024-03-25T00:55:35;0.82;;;0.80;;
10705;SDS011;5404;42.656;23.336;2024-03-25T00:58:01;0.98;;;0.88;;
10705;SDS011;5404;42.656;23.336;2024-03-25T01:00:27;0.70;;;0.70;;
10705;SDS011;5404;42.656;23.336;2024-03-25T01:02:53;1.70;;;0.90;;
10705;SDS011;5404;42.656;23.336;2024-03-25T01:05:18;2.03;;;0.85;;
10705;SDS011;5404;42.656;23.336;2024-03-25T01:07:43;0.85;;;0.70;;
10705;SDS011;5404;42.656;23.336;2024-03-25T01:10:09;0.75;;;0.75;;
10705;SDS011;5404;42.656;23.336;2024-03-25T01:12:34;0.75;;;0.73;;
10705;SDS011;5404;42.656;23.336;2024-03-25T01:15:00;0.70;;;0.70;;
10705;SDS011;5404;42.656;23.336;2024-03-25T01:17:27;0.93;;;0.90;;
10705;SDS011;5404;42.656;23.336;2024-03-25T01:19:52;0.85;;;0.80;;
10705;SDS011;5404;42.656;23.336;2024-03-25T01:22:18;0.77;;;0.75;;
10705;SDS011;5404;42.656;23.336;2024-03-25T01:24:43;0.75;;;0.75;;
10705;SDS011;5404;42.656;23.336;2024-03-25T01:27:09;1.13;;;1.08;;
10705;SDS011;5404;42.656;23.336;2024-03-25T01:29:34;3.85;;;0.90;;
10705;SDS011;5404;42.656;23.336;2024-03-25T01:32:00;0.80;;;0.80;;
10705;SDS011;5404;42.656;23.336;2024-03-25T01:34:27;1.10;;;1.00;;
10705;SDS011;5404;42.656;23.336;2024-03-25T01:36:53;0.90;;;0.90;;
10705;SDS011;5404;42.656;23.336;2024-03-25T01:39:18;0.80;;;0.80;;
10705;SDS011;5404;42.656;23.336;2024-03-25T01:41:44;3.50;;;0.90;;
10705;SDS011;5404;42.656;23.336;2024-03-25T01:44:10;1.00;;;0.90;;
10705;SDS011;5404;42.656;23.336;2024-03-25T01:46:36;1.95;;;0.80;;
10705;SDS011;5404;42.656;23.336;2024-03-25T01:49:02;0.80;;;0.80;;
10705;SDS011;5404;42.656;23.336;2024-03-25T01:51:28;0.80;;;0.80;;
10705;SDS011;5404;42.656;23.336;2024-03-25T01:53:54;1.40;;;0.90;;
10705;SDS011;5404;42.656;23.336;2024-03-25T01:56:21;1.13;;;0.90;;
10705;SDS011;5404;42.656;23.336;2024-03-25T01:58:49;0.85;;;0.85;;
10705;SDS011;5404;42.656;23.336;2024-03-25T02:01:15;0.88;;;0.88;;
10705;SDS011;5404;42.656;23.336;2024-03-25T02:03:41;1.80;;;0.93;;
10705;SDS011;5404;42.656;23.336;2024-03-25T02:06:09;2.72;;;1.00;;
10705;SDS011;5404;42.656;23.336;2024-03-25T02:08:38;0.93;;;0.90;;
10705;SDS011;5404;42.656;23.336;2024-03-25T02:11:05;3.65;;;1.77;;
10705;SDS011;5404;42.656;23.336;2024-03-25T02:13:31;1.15;;;1.00;;
10705;SDS011;5404;42.656;23.336;2024-03-25T02:15:57;1.88;;;1.10;;
10705;SDS011;5404;42.656;23.336;2024-03-25T02:18:22;1.13;;;1.00;;
10705;SDS011;5404;42.656;23.336;2024-03-25T02:20:48;0.80;;;0.80;;
10705;SDS011;5404;42.656;23.336;2024-03-25T02:23:14;0.90;;;0.90;;
10705;SDS011;5404;42.656;23.336;2024-03-25T02:25:40;1.00;;;1.00;;
10705;SDS011;5404;42.656;23.336;2024-03-25T02:28:07;0.93;;;0.93;;
10705;SDS011;5404;42.656;23.336;2024-03-25T02:30:33;1.10;;;1.00;;
10705;SDS011;5404;42.656;23.336;2024-03-25T02:32:58;1.30;;;1.20;;
10705;SDS011;5404;42.656;23.336;2024-03-25T02:35:24;1.15;;;1.13;;
10705;SDS011;5404;42.656;23.336;2024-03-25T02:37:51;1.45;;;1.35;;
10705;SDS011;5404;42.656;23.336;2024-03-25T02:40:17;1.30;;;1.20;;
10705;SDS011;5404;42.656;23.336;2024-03-25T02:42:44;1.50;;;1.40;;
10705;SDS011;5404;42.656;23.336;2024-03-25T02:45:10;1.30;;;1.20;;
10705;SDS011;5404;42.656;23.336;2024-03-25T02:47:35;1.35;;;1.25;;
10705;SDS011;5404;42.656;23.336;2024-03-25T02:50:01;1.25;;;1.10;;
10705;SDS011;5404;42.656;23.336;2024-03-25T02:52:27;1.20;;;1.10;;
10705;SDS011;5404;42.656;23.336;2024-03-25T02:54:52;1.40;;;1.30;;
10705;SDS011;5404;42.656;23.336;2024-03-25T02:57:19;1.20;;;1.10;;
10705;SDS011;5404;42.656;23.336;2024-03-25T02:59:45;1.08;;;1.00;;
10705;SDS011;5404;42.656;23.336;2024-03-25T03:02:10;1.10;;;1.00;;
10705;SDS011;5404;42.656;23.336;2024-03-25T03:04:35;1.10;;;1.00;;
10705;SDS011;5404;42.656;23.336;2024-03-25T03:07:01;1.10;;;1.00;;
10705;SDS011;5404;42.656;23.336;2024-03-25T03:09:26;1.38;;;1.27;;
10705;SDS011;5404;42.656;23.336;2024-03-25T03:11:52;1.48;;;1.38;;
10705;SDS011;5404;42.656;23.336;2024-03-25T03:14:17;1.50;;;1.40;;
10705;SDS011;5404;42.656;23.336;2024-03-25T03:16:42;1.40;;;1.30;;
10705;SDS011;5404;42.656;23.336;2024-03-25T03:19:08;1.63;;;1.30;;
10705;SDS011;5404;42.656;23.336;2024-03-25T03:21:33;1.60;;;1.50;;
10705;SDS011;5404;42.656;23.336;2024-03-25T03:23:59;1.75;;;1.33;;
10705;SDS011;5404;42.656;23.336;2024-03-25T03:26:24;1.42;;;1.33;;
10705;SDS011;5404;42.656;23.336;2024-03-25T03:28:53;1.55;;;1.45;;
10705;SDS011;5404;42.656;23.336;2024-03-25T03:31:19;1.38;;;1.27;;
10705;SDS011;5404;42.656;23.336;2024-03-25T03:33:46;2.78;;;1.65;;
10705;SDS011;5404;42.656;23.336;2024-03-25T03:36:12;2.72;;;1.83;;
10705;SDS011;5404;42.656;23.336;2024-03-25T03:38:38;2.38;;;2.08;;
10705;SDS011;5404;42.656;23.336;2024-03-25T03:41:03;3.20;;;2.40;;
10705;SDS011;5404;42.656;23.336;2024-03-25T03:43:29;5.10;;;2.90;;
10705;SDS011;5404;42.656;23.336;2024-03-25T03:45:54;3.88;;;2.83;;
10705;SDS011;5404;42.656;23.336;2024-03-25T03:48:19;4.07;;;3.10;;
10705;SDS011;5404;42.656;23.336;2024-03-25T03:50:45;4.75;;;3.10;;
10705;SDS011;5404;42.656;23.336;2024-03-25T03:53:10;4.30;;;2.55;;
10705;SDS011;5404;42.656;23.336;2024-03-25T03:55:36;4.85;;;3.20;;
10705;SDS011;5404;42.656;23.336;2024-03-25T03:58:02;4.78;;;3.08;;
10705;SDS011;5404;42.656;23.336;2024-03-25T04:00:27;5.20;;;3.25;;
10705;SDS011;5404;42.656;23.336;2024-03-25T04:02:53;3.97;;;3.10;;
10705;SDS011;5404;42.656;23.336;2024-03-25T04:05:18;6.93;;;3.47;;
10705;SDS011;5404;42.656;23.336;2024-03-25T04:07:44;4.35;;;2.97;;
10705;SDS011;5404;42.656;23.336;2024-03-25T04:10:09;4.93;;;3.28;;
10705;SDS011;5404;42.656;23.336;2024-03-25T04:12:35;5.05;;;3.40;;
10705;SDS011;5404;42.656;23.336;2024-03-25T04:15:02;4.57;;;3.30;;
10705;SDS011;5404;42.656;23.336;2024-03-25T04:17:28;5.95;;;3.55;;
10705;SDS011;5404;42.656;23.336;2024-03-25T04:19:54;5.85;;;4.03;;
10705;SDS011;5404;42.656;23.336;2024-03-25T04:22:19;9.30;;;4.22;;
10705;SDS011;5404;42.656;23.336;2024-03-25T04:24:45;6.28;;;4.20;;
10705;SDS011;5404;42.656;23.336;2024-03-25T04:27:10;7.05;;;4.53;;
10705;SDS011;5404;42.656;23.336;2024-03-25T04:29:36;7.35;;;4.97;;
10705;SDS011;5404;42.656;23.336;2024-03-25T04:32:01;8.63;;;4.95;;
10705;SDS011;5404;42.656;23.336;2024-03-25T04:34:27;9.52;;;5.38;;
10705;SDS011;5404;42.656;23.336;2024-03-25T04:36:53;10.25;;;5.20;;
10705;SDS011;5404;42.656;23.336;2024-03-25T04:39:19;9.65;;;5.57;;
10705;SDS011;5404;42.656;23.336;2024-03-25T04:41:44;9.70;;;5.90;;
10705;SDS011;5404;42.656;23.336;2024-03-25T04:44:11;11.07;;;6.28;;
10705;SDS011;5404;42.656;23.336;2024-03-25T04:46:36;10.20;;;6.47;;
10705;SDS011;5404;42.656;23.336;2024-03-25T04:49:02;12.13;;;6.47;;
10705;SDS011;5404;42.656;23.336;2024-03-25T04:51:27;12.27;;;6.68;;
10705;SDS011;5404;42.656;23.336;2024-03-25T04:53:52;13.18;;;7.10;;
10705;SDS011;5404;42.656;23.336;2024-03-25T04:56:18;13.27;;;7.00;;
10705;SDS011;5404;42.656;23.336;2024-03-25T04:58:44;12.40;;;6.60;;
10705;SDS011;5404;42.656;23.336;2024-03-25T05:01:09;15.57;;;8.05;;
10705;SDS011;5404;42.656;23.336;2024-03-25T05:03:34;11.93;;;7.38;;
10705;SDS011;5404;42.656;23.336;2024-03-25T05:06:00;12.65;;;7.43;;
10705;SDS011;5404;42.656;23.336;2024-03-25T05:08:25;12.10;;;7.60;;
10705;SDS011;5404;42.656;23.336;2024-03-25T05:10:51;14.38;;;8.18;;
10705;SDS011;5404;42.656;23.336;2024-03-25T05:13:16;16.80;;;8.45;;
10705;SDS011;5404;42.656;23.336;2024-03-25T05:15:49;16.10;;;8.90;;
10705;SDS011;5404;42.656;23.336;2024-03-25T05:18:17;16.98;;;8.70;;
10705;SDS011;5404;42.656;23.336;2024-03-25T05:20:43;18.58;;;7.78;;
10705;SDS011;5404;42.656;23.336;2024-03-25T05:23:08;14.63;;;8.30;;
10705;SDS011;5404;42.656;23.336;2024-03-25T05:25:34;19.05;;;9.30;;
10705;SDS011;5404;42.656;23.336;2024-03-25T05:28:00;18.17;;;9.43;;
10705;SDS011;5404;42.656;23.336;2024-03-25T05:30:26;16.83;;;9.43;;
10705;SDS011;5404;42.656;23.336;2024-03-25T05:32:51;17.75;;;8.85;;
10705;SDS011;5404;42.656;23.336;2024-03-25T05:35:17;17.35;;;9.23;;
10705;SDS011;5404;42.656;23.336;2024-03-25T05:37:42;17.33;;;9.00;;
10705;SDS011;5404;42.656;23.336;2024-03-25T05:40:08;18.60;;;9.98;;
10705;SDS011;5404;42.656;23.336;2024-03-25T05:42:36;15.63;;;9.10;;
10705;SDS011;5404;42.656;23.336;2024-03-25T05:45:02;19.23;;;10.52;;
10705;SDS011;5404;42.656;23.336;2024-03-25T05:47:27;14.85;;;9.20;;
10705;SDS011;5404;42.656;23.336;2024-03-25T05:49:53;18.02;;;9.25;;
10705;SDS011;5404;42.656;23.336;2024-03-25T05:52:18;17.25;;;9.68;;
10705;SDS011;5404;42.656;23.336;2024-03-25T05:54:44;16.83;;;8.85;;
10705;SDS011;5404;42.656;23.336;2024-03-25T05:57:09;19.20;;;10.50;;
10705;SDS011;5404;42.656;23.336;2024-03-25T05:59:35;19.60;;;10.20;;
10705;SDS011;5404;42.656;23.336;2024-03-25T06:02:00;14.85;;;8.98;;
10705;SDS011;5404;42.656;23.336;2024-03-25T06:04:25;17.80;;;9.80;;
10705;SDS011;5404;42.656;23.336;2024-03-25T06:06:51;15.32;;;9.73;;
10705;SDS011;5404;42.656;23.336;2024-03-25T06:09:16;18.58;;;9.60;;
10705;SDS011;5404;42.656;23.336;2024-03-25T06:11:42;17.15;;;10.13;;
10705;SDS011;5404;42.656;23.336;2024-03-25T06:14:08;17.52;;;10.07;;
10705;SDS011;5404;42.656;23.336;2024-03-25T06:16:33;16.58;;;9.80;;
10705;SDS011;5404;42.656;23.336;2024-03-25T06:18:58;17.98;;;10.00;;
10705;SDS011;5404;42.656;23.336;2024-03-25T06:21:24;18.80;;;10.32;;
10705;SDS011;5404;42.656;23.336;2024-03-25T06:23:49;21.73;;;10.73;;
10705;SDS011;5404;42.656;23.336;2024-03-25T06:26:15;17.80;;;10.40;;
10705;SDS011;5404;42.656;23.336;2024-03-25T06:28:40;19.60;;;11.18;;
10705;SDS011;5404;42.656;23.336;2024-03-25T06:31:05;35.67;;;16.05;;
10705;SDS011;5404;42.656;23.336;2024-03-25T06:33:49;18.38;;;10.88;;
10705;SDS011;5404;42.656;23.336;2024-03-25T06:36:34;21.90;;;12.05;;
10705;SDS011;5404;42.656;23.336;2024-03-25T06:39:00;17.33;;;10.20;;
10705;SDS011;5404;42.656;23.336;2024-03-25T06:41:26;20.33;;;11.13;;
10705;SDS011;5404;42.656;23.336;2024-03-25T06:43:51;18.58;;;10.88;;
10705;SDS011;5404;42.656;23.336;2024-03-25T06:46:16;19.75;;;11.00;;
10705;SDS011;5404;42.656;23.336;2024-03-25T06:48:42;24.35;;;11.13;;
10705;SDS011;5404;42.656;23.336;2024-03-25T06:51:07;17.17;;;9.57;;
10705;SDS011;5404;42.656;23.336;2024-03-25T06:53:33;17.55;;;9.73;;
10705;SDS011;5404;42.656;23.336;2024-03-25T06:55:58;16.17;;;9.65;;
10705;SDS011;5404;42.656;23.336;2024-03-25T06:58:25;16.83;;;9.38;;
10705;SDS011;5404;42.656;23.336;2024-03-25T07:00:51;18.88;;;10.15;;
10705;SDS011;5404;42.656;23.336;2024-03-25T07:03:18;21.73;;;10.57;;
10705;SDS011;5404;42.656;23.336;2024-03-25T07:05:47;18.73;;;10.30;;
10705;SDS011;5404;42.656;23.336;2024-03-25T07:08:14;20.75;;;10.90;;
10705;SDS011;5404;42.656;23.336;2024-03-25T07:10:43;15.90;;;9.57;;
10705;SDS011;5404;42.656;23.336;2024-03-25T07:13:09;17.65;;;9.95;;
10705;SDS011;5404;42.656;23.336;2024-03-25T07:15:35;20.20;;;11.35;;
10705;SDS011;5404;42.656;23.336;2024-03-25T07:18:00;17.00;;;9.60;;
10705;SDS011;5404;42.656;23.336;2024-03-25T07:20:26;23.63;;;11.02;;
10705;SDS011;5404;42.656;23.336;2024-03-25T07:22:52;18.83;;;9.45;;
10705;SDS011;5404;42.656;23.336;2024-03-25T07:25:23;18.95;;;10.57;;
10705;SDS011;5404;42.656;23.336;2024-03-25T07:27:49;19.63;;;11.98;;
10705;SDS011;5404;42.656;23.336;2024-03-25T07:30:15;22.52;;;9.93;;
10705;SDS011;5404;42.656;23.336;2024-03-25T07:32:40;26.38;;;9.73;;
10705;SDS011;5404;42.656;23.336;2024-03-25T07:35:06;14.00;;;8.75;;
10705;SDS011;5404;42.656;23.336;2024-03-25T07:37:33;13.05;;;8.43;;
10705;SDS011;5404;42.656;23.336;2024-03-25T07:39:59;15.55;;;9.00;;
10705;SDS011;5404;42.656;23.336;2024-03-25T07:42:25;13.70;;;8.45;;
10705;SDS011;5404;42.656;23.336;2024-03-25T07:44:50;16.42;;;9.52;;
10705;SDS011;5404;42.656;23.336;2024-03-25T07:47:15;12.10;;;8.52;;
10705;SDS011;5404;42.656;23.336;2024-03-25T07:49:42;14.10;;;9.50;;
10705;SDS011;5404;42.656;23.336;2024-03-25T07:52:07;18.38;;;9.02;;
10705;SDS011;5404;42.656;23.336;2024-03-25T07:54:33;16.02;;;8.98;;
10705;SDS011;5404;42.656;23.336;2024-03-25T07:56:58;14.18;;;9.00;;
10705;SDS011;5404;42.656;23.336;2024-03-25T07:59:24;14.00;;;8.45;;
10705;SDS011;5404;42.656;23.336;2024-03-25T08:01:49;15.52;;;9.32;;
10705;SDS011;5404;42.656;23.336;2024-03-25T08:04:15;14.90;;;8.80;;
10705;SDS011;5404;42.656;23.336;2024-03-25T08:06:40;13.02;;;8.73;;
10705;SDS011;5404;42.656;23.336;2024-03-25T08:09:06;18.67;;;8.70;;
10705;SDS011;5404;42.656;23.336;2024-03-25T08:11:32;13.82;;;8.07;;
10705;SDS011;5404;42.656;23.336;2024-03-25T08:13:58;13.05;;;8.18;;
10705;SDS011;5404;42.656;23.336;2024-03-25T08:16:24;15.05;;;8.75;;
10705;SDS011;5404;42.656;23.336;2024-03-25T08:18:49;13.50;;;8.23;;
10705;SDS011;5404;42.656;23.336;2024-03-25T08:21:15;12.80;;;8.15;;
10705;SDS011;5404;42.656;23.336;2024-03-25T08:23:41;11.63;;;7.28;;
10705;SDS011;5404;42.656;23.336;2024-03-25T08:26:06;13.38;;;8.63;;
10705;SDS011;5404;42.656;23.336;2024-03-25T08:28:33;19.77;;;8.40;;
10705;SDS011;5404;42.656;23.336;2024-03-25T08:30:59;13.65;;;7.15;;
10705;SDS011;5404;42.656;23.336;2024-03-25T08:33:24;9.50;;;7.55;;
10705;SDS011;5404;42.656;23.336;2024-03-25T08:35:50;17.17;;;7.55;;
10705;SDS011;5404;42.656;23.336;2024-03-25T08:38:15;13.38;;;7.97;;
10705;SDS011;5404;42.656;23.336;2024-03-25T08:40:41;10.18;;;6.43;;
10705;SDS011;5404;42.656;23.336;2024-03-25T08:43:06;16.88;;;7.25;;
10705;SDS011;5404;42.656;23.336;2024-03-25T08:45:32;10.40;;;7.30;;
10705;SDS011;5404;42.656;23.336;2024-03-25T08:47:57;13.35;;;7.50;;
10705;SDS011;5404;42.656;23.336;2024-03-25T08:50:23;10.68;;;6.13;;
10705;SDS011;5404;42.656;23.336;2024-03-25T08:52:48;9.82;;;6.32;;
10705;SDS011;5404;42.656;23.336;2024-03-25T08:55:14;8.70;;;6.18;;
10705;SDS011;5404;42.656;23.336;2024-03-25T08:57:40;10.77;;;6.55;;
10705;SDS011;5404;42.656;23.336;2024-03-25T09:00:05;14.55;;;7.25;;
10705;SDS011;5404;42.656;23.336;2024-03-25T09:02:35;8.93;;;6.25;;
10705;SDS011;5404;42.656;23.336;2024-03-25T09:05:01;11.27;;;7.28;;
10705;SDS011;5404;42.656;23.336;2024-03-25T09:07:30;12.88;;;8.70;;
10705;SDS011;5404;42.656;23.336;2024-03-25T09:09:56;17.90;;;8.63;;
10705;SDS011;5404;42.656;23.336;2024-03-25T09:12:40;11.57;;;7.60;;
10705;SDS011;5404;42.656;23.336;2024-03-25T09:15:05;13.68;;;6.72;;
10705;SDS011;5404;42.656;23.336;2024-03-25T09:17:31;10.27;;;7.28;;
10705;SDS011;5404;42.656;23.336;2024-03-25T09:19:57;11.98;;;7.18;;
10705;SDS011;5404;42.656;23.336;2024-03-25T09:22:22;26.30;;;8.50;;
10705;SDS011;5404;42.656;23.336;2024-03-25T09:24:48;11.63;;;7.63;;
10705;SDS011;5404;42.656;23.336;2024-03-25T09:27:14;9.90;;;6.45;;
10705;SDS011;5404;42.656;23.336;2024-03-25T09:29:42;9.90;;;6.63;;
10705;SDS011;5404;42.656;23.336;2024-03-25T09:32:08;10.43;;;6.63;;
10705;SDS011;5404;42.656;23.336;2024-03-25T09:34:33;8.00;;;5.53;;
10705;SDS011;5404;42.656;23.336;2024-03-25T09:36:59;9.07;;;6.00;;
10705;SDS011;5404;42.656;23.336;2024-03-25T09:39:25;11.02;;;6.72;;
10705;SDS011;5404;42.656;23.336;2024-03-25T09:41:50;10.80;;;6.95;;
10705;SDS011;5404;42.656;23.336;2024-03-25T09:44:22;10.95;;;6.70;;
10705;SDS011;5404;42.656;23.336;2024-03-25T09:46:50;11.15;;;6.65;;
10705;SDS011;5404;42.656;23.336;2024-03-25T09:49:16;11.82;;;7.28;;
10705;SDS011;5404;42.656;23.336;2024-03-25T09:51:42;12.48;;;6.22;;
10705;SDS011;5404;42.656;23.336;2024-03-25T09:54:08;10.80;;;7.10;;
10705;SDS011;5404;42.656;23.336;2024-03-25T09:56:35;8.40;;;6.38;;
10705;SDS011;5404;42.656;23.336;2024-03-25T09:59:02;11.70;;;6.35;;
10705;SDS011;5404;42.656;23.336;2024-03-25T10:01:28;8.52;;;6.07;;
10705;SDS011;5404;42.656;23.336;2024-03-25T10:03:54;12.70;;;5.80;;
10705;SDS011;5404;42.656;23.336;2024-03-25T10:06:19;7.97;;;5.60;;
10705;SDS011;5404;42.656;23.336;2024-03-25T10:08:45;5.93;;;4.63;;
10705;SDS011;5404;42.656;23.336;2024-03-25T10:11:10;6.93;;;4.68;;
10705;SDS011;5404;42.656;23.336;2024-03-25T10:13:36;6.15;;;4.32;;
10705;SDS011;5404;42.656;23.336;2024-03-25T10:16:02;8.00;;;5.45;;
10705;SDS011;5404;42.656;23.336;2024-03-25T10:18:28;11.60;;;4.68;;
10705;SDS011;5404;42.656;23.336;2024-03-25T10:20:53;7.55;;;5.20;;
10705;SDS011;5404;42.656;23.336;2024-03-25T10:23:20;11.50;;;5.43;;
10705;SDS011;5404;42.656;23.336;2024-03-25T10:25:47;7.55;;;5.47;;
10705;SDS011;5404;42.656;23.336;2024-03-25T10:28:13;8.95;;;6.15;;
10705;SDS011;5404;42.656;23.336;2024-03-25T10:30:39;22.13;;;9.63;;
10705;SDS011;5404;42.656;23.336;2024-03-25T10:33:06;15.73;;;6.63;;
10705;SDS011;5404;42.656;23.336;2024-03-25T10:35:33;8.10;;;4.75;;
10705;SDS011;5404;42.656;23.336;2024-03-25T10:38:00;11.55;;;6.22;;
10705;SDS011;5404;42.656;23.336;2024-03-25T10:40:35;8.63;;;5.60;;
10705;SDS011;5404;42.656;23.336;2024-03-25T10:43:08;7.03;;;4.97;;
10705;SDS011;5404;42.656;23.336;2024-03-25T10:45:43;6.85;;;4.22;;
10705;SDS011;5404;42.656;23.336;2024-03-25T10:48:17;6.82;;;4.95;;
10705;SDS011;5404;42.656;23.336;2024-03-25T10:50:53;9.52;;;4.53;;
10705;SDS011;5404;42.656;23.336;2024-03-25T10:53:20;6.60;;;3.60;;
10705;SDS011;5404;42.656;23.336;2024-03-25T10:55:48;7.47;;;4.20;;
10705;SDS011;5404;42.656;23.336;2024-03-25T10:58:16;4.80;;;3.70;;
10705;SDS011;5404;42.656;23.336;2024-03-25T11:00:42;12.57;;;3.75;;
10705;SDS011;5404;42.656;23.336;2024-03-25T11:03:09;6.13;;;3.70;;
10705;SDS011;5404;42.656;23.336;2024-03-25T11:05:35;4.72;;;3.33;;
10705;SDS011;5404;42.656;23.336;2024-03-25T11:08:11;7.32;;;3.45;;
10705;SDS011;5404;42.656;23.336;2024-03-25T11:10:41;4.88;;;3.35;;
10705;SDS011;5404;42.656;23.336;2024-03-25T11:13:12;10.65;;;3.88;;
10705;SDS011;5404;42.656;23.336;2024-03-25T11:15:42;4.80;;;3.90;;
10705;SDS011;5404;42.656;23.336;2024-03-25T11:18:12;5.78;;;4.15;;
10705;SDS011;5404;42.656;23.336;2024-03-25T11:20:38;6.07;;;3.92;;
10705;SDS011;5404;42.656;23.336;2024-03-25T11:23:08;4.60;;;3.47;;
10705;SDS011;5404;42.656;23.336;2024-03-25T11:25:36;7.45;;;4.40;;
10705;SDS011;5404;42.656;23.336;2024-03-25T11:28:02;15.43;;;3.03;;
10705;SDS011;5404;42.656;23.336;2024-03-25T11:30:28;7.30;;;3.20;;
10705;SDS011;5404;42.656;23.336;2024-03-25T11:32:54;7.05;;;3.47;;
10705;SDS011;5404;42.656;23.336;2024-03-25T11:35:20;8.10;;;3.20;;
10705;SDS011;5404;42.656;23.336;2024-03-25T11:37:46;4.30;;;3.53;;
10705;SDS011;5404;42.656;23.336;2024-03-25T11:40:12;5.00;;;3.80;;
10705;SDS011;5404;42.656;23.336;2024-03-25T11:42:39;3.78;;;2.88;;
10705;SDS011;5404;42.656;23.336;2024-03-25T11:45:06;4.53;;;3.45;;
10705;SDS011;5404;42.656;23.336;2024-03-25T11:47:32;5.20;;;3.38;;
10705;SDS011;5404;42.656;23.336;2024-03-25T11:49:58;6.57;;;3.67;;
10705;SDS011;5404;42.656;23.336;2024-03-25T11:52:29;4.93;;;3.47;;
10705;SDS011;5404;42.656;23.336;2024-03-25T11:54:55;5.82;;;3.05;;
10705;SDS011;5404;42.656;23.336;2024-03-25T11:57:22;3.58;;;3.25;;
10705;SDS011;5404;42.656;23.336;2024-03-25T11:59:48;4.95;;;3.53;;
10705;SDS011;5404;42.656;23.336;2024-03-25T12:02:17;4.22;;;3.33;;
10705;SDS011;5404;42.656;23.336;2024-03-25T12:04:44;6.05;;;4.15;;
10705;SDS011;5404;42.656;23.336;2024-03-25T12:07:11;7.57;;;3.85;;
10705;SDS011;5404;42.656;23.336;2024-03-25T12:09:37;27.05;;;3.63;;
10705;SDS011;5404;42.656;23.336;2024-03-25T12:12:21;3.88;;;2.97;;
10705;SDS011;5404;42.656;23.336;2024-03-25T12:14:47;5.05;;;3.00;;
10705;SDS011;5404;42.656;23.336;2024-03-25T12:17:12;9.45;;;3.45;;
10705;SDS011;5404;42.656;23.336;2024-03-25T12:19:38;10.05;;;3.50;;
10705;SDS011;5404;42.656;23.336;2024-03-25T12:22:05;4.22;;;2.95;;
10705;SDS011;5404;42.656;23.336;2024-03-25T12:24:32;4.38;;;3.40;;
10705;SDS011;5404;42.656;23.336;2024-03-25T12:26:58;6.28;;;3.28;;
10705;SDS011;5404;42.656;23.336;2024-03-25T12:29:24;8.75;;;3.67;;
10705;SDS011;5404;42.656;23.336;2024-03-25T12:31:53;4.57;;;3.30;;
10705;SDS011;5404;42.656;23.336;2024-03-25T12:34:19;7.22;;;3.67;;
10705;SDS011;5404;42.656;23.336;2024-03-25T12:36:45;7.47;;;3.70;;
10705;SDS011;5404;42.656;23.336;2024-03-25T12:39:15;5.25;;;3.42;;
10705;SDS011;5404;42.656;23.336;2024-03-25T12:41:41;4.32;;;2.80;;
10705;SDS011;5404;42.656;23.336;2024-03-25T12:44:07;7.15;;;3.47;;
10705;SDS011;5404;42.656;23.336;2024-03-25T12:46:32;6.45;;;2.72;;
10705;SDS011;5404;42.656;23.336;2024-03-25T12:48:58;4.18;;;3.15;;
10705;SDS011;5404;42.656;23.336;2024-03-25T12:51:24;7.88;;;3.13;;
10705;SDS011;5404;42.656;23.336;2024-03-25T12:53:49;4.53;;;3.30;;
10705;SDS011;5404;42.656;23.336;2024-03-25T12:56:15;5.57;;;3.10;;
10705;SDS011;5404;42.656;23.336;2024-03-25T12:58:41;6.95;;;3.78;;
10705;SDS011;5404;42.656;23.336;2024-03-25T13:01:06;3.65;;;3.10;;
10705;SDS011;5404;42.656;23.336;2024-03-25T13:03:32;4.25;;;3.15;;
10705;SDS011;5404;42.656;23.336;2024-03-25T13:05:57;6.35;;;3.70;;
10705;SDS011;5404;42.656;23.336;2024-03-25T13:08:24;4.25;;;2.97;;
10705;SDS011;5404;42.656;23.336;2024-03-25T13:10:50;6.05;;;3.75;;
10705;SDS011;5404;42.656;23.336;2024-03-25T13:13:15;4.63;;;3.33;;
10705;SDS011;5404;42.656;23.336;2024-03-25T13:15:41;7.60;;;3.78;;
10705;SDS011;5404;42.656;23.336;2024-03-25T13:18:08;6.20;;;3.67;;
10705;SDS011;5404;42.656;23.336;2024-03-25T13:20:34;5.65;;;3.15;;
10705;SDS011;5404;42.656;23.336;2024-03-25T13:22:59;4.50;;;3.22;;
10705;SDS011;5404;42.656;23.336;2024-03-25T13:25:25;5.72;;;3.00;;
10705;SDS011;5404;42.656;23.336;2024-03-25T13:27:52;9.45;;;3.65;;
10705;SDS011;5404;42.656;23.336;2024-03-25T13:30:18;9.43;;;3.53;;
10705;SDS011;5404;42.656;23.336;2024-03-25T13:32:43;4.32;;;3.00;;
10705;SDS011;5404;42.656;23.336;2024-03-25T13:35:09;12.68;;;3.00;;
10705;SDS011;5404;42.656;23.336;2024-03-25T13:37:34;4.18;;;2.63;;
10705;SDS011;5404;42.656;23.336;2024-03-25T13:39:59;6.28;;;2.72;;
10705;SDS011;5404;42.656;23.336;2024-03-25T13:42:25;4.97;;;3.00;;
10705;SDS011;5404;42.656;23.336;2024-03-25T13:44:50;7.15;;;3.40;;
10705;SDS011;5404;42.656;23.336;2024-03-25T13:47:16;4.55;;;2.88;;
10705;SDS011;5404;42.656;23.336;2024-03-25T13:49:41;5.40;;;2.47;;
10705;SDS011;5404;42.656;23.336;2024-03-25T13:52:07;3.60;;;2.90;;
10705;SDS011;5404;42.656;23.336;2024-03-25T13:54:32;4.22;;;2.63;;
10705;SDS011;5404;42.656;23.336;2024-03-25T13:56:58;5.15;;;3.20;;
10705;SDS011;5404;42.656;23.336;2024-03-25T13:59:23;9.30;;;3.03;;
10705;SDS011;5404;42.656;23.336;2024-03-25T14:01:49;4.78;;;2.80;;
10705;SDS011;5404;42.656;23.336;2024-03-25T14:04:14;18.98;;;3.90;;
10705;SDS011;5404;42.656;23.336;2024-03-25T14:06:40;9.38;;;2.63;;
10705;SDS011;5404;42.656;23.336;2024-03-25T14:09:06;22.63;;;3.17;;
10705;SDS011;5404;42.656;23.336;2024-03-25T14:11:35;3.80;;;2.22;;
10705;SDS011;5404;42.656;23.336;2024-03-25T14:14:01;3.65;;;2.13;;
10705;SDS011;5404;42.656;23.336;2024-03-25T14:16:26;3.25;;;1.60;;
10705;SDS011;5404;42.656;23.336;2024-03-25T14:18:52;6.43;;;1.92;;
10705;SDS011;5404;42.656;23.336;2024-03-25T14:21:18;5.38;;;2.15;;
10705;SDS011;5404;42.656;23.336;2024-03-25T14:23:43;2.40;;;1.98;;
10705;SDS011;5404;42.656;23.336;2024-03-25T14:26:11;2.35;;;1.70;;
10705;SDS011;5404;42.656;23.336;2024-03-25T14:28:37;2.10;;;1.83;;
10705;SDS011;5404;42.656;23.336;2024-03-25T14:31:03;6.05;;;2.03;;
10705;SDS011;5404;42.656;23.336;2024-03-25T14:33:29;3.22;;;2.35;;
10705;SDS011;5404;42.656;23.336;2024-03-25T14:35:54;3.03;;;1.98;;